sensor_id;sensor_type;location;lat;lon;timestamp;pressure;altitude;pressure_sealevel;temperature;humidity
74181;BME280;62544;50.826;14.354;2023-01-29T00:03:23;100368.95;;;-1.27;78.01
74181;BME280;62544;50.826;14.354;2023-01-29T00:07:47;100369.78;;;-1.26;78.36
74181;BME280;62544;50.826;14.354;2023-01-29T00:12:11;100369.78;;;-1.25;78.39
74181;BME280;62544;50.826;14.354;2023-01-29T00:16:35;100367.27;;;-1.26;78.76
74181;BME280;62544;50.826;14.354;2023-01-29T00:20:59;100364.18;;;-1.28;78.70
74181;BME280;62544;50.826;14.354;2023-01-29T00:25:23;100359.53;;;-1.30;79.02
74181;BME280;62544;50.826;14.354;2023-01-29T00:29:47;100353.71;;;-1.35;79.42
74181;BME280;62544;50.826;14.354;2023-01-29T00:34:11;100350.55;;;-1.42;79.99
74181;BME280;62544;50.826;14.354;2023-01-29T00:38:35;100347.09;;;-1.47;80.12
74181;BME280;62544;50.826;14.354;2023-01-29T00:42:59;100344.56;;;-1.45;79.25
74181;BME280;62544;50.826;14.354;2023-01-29T00:47:23;100343.59;;;-1.43;79.01
74181;BME280;62544;50.826;14.354;2023-01-29T00:51:47;100341.06;;;-1.39;77.93
74181;BME280;62544;50.826;14.354;2023-01-29T00:56:11;100338.36;;;-1.36;78.14
74181;BME280;62544;50.826;14.354;2023-01-29T01:00:35;100334.18;;;-1.34;78.15
74181;BME280;62544;50.826;14.354;2023-01-29T01:04:59;100329.71;;;-1.34;77.99
74181;BME280;62544;50.826;14.354;2023-01-29T01:09:23;100324.80;;;-1.34;78.16
74181;BME280;62544;50.826;14.354;2023-01-29T01:13:47;100320.12;;;-1.35;78.11
74181;BME280;62544;50.826;14.354;2023-01-29T01:18:11;100315.97;;;-1.37;78.30
74181;BME280;62544;50.826;14.354;2023-01-29T01:22:35;100312.20;;;-1.37;78.24
74181;BME280;62544;50.826;14.354;2023-01-29T01:26:59;100308.53;;;-1.39;78.24
74181;BME280;62544;50.826;14.354;2023-01-29T01:31:23;100306.97;;;-1.40;78.45
74181;BME280;62544;50.826;14.354;2023-01-29T01:35:47;100304.71;;;-1.39;78.51
74181;BME280;62544;50.826;14.354;2023-01-29T01:40:12;100303.64;;;-1.39;78.59
74181;BME280;62544;50.826;14.354;2023-01-29T01:44:51;100302.04;;;-1.41;78.75
74181;BME280;62544;50.826;14.354;2023-01-29T01:49:00;100299.33;;;-1.39;78.32
74181;BME280;62544;50.826;14.354;2023-01-29T01:53:32;100296.98;;;-1.38;78.54
74181;BME280;62544;50.826;14.354;2023-01-29T01:57:47;100295.50;;;-1.37;78.04
74181;BME280;62544;50.826;14.354;2023-01-29T02:02:11;100292.99;;;-1.37;77.75
74181;BME280;62544;50.826;14.354;2023-01-29T02:06:35;100292.42;;;-1.38;78.54
74181;BME280;62544;50.826;14.354;2023-01-29T02:10:59;100292.72;;;-1.38;78.17
74181;BME280;62544;50.826;14.354;2023-01-29T02:15:23;100293.31;;;-1.37;78.00
74181;BME280;62544;50.826;14.354;2023-01-29T02:24:17;100295.29;;;-1.34;77.10
74181;BME280;62544;50.826;14.354;2023-01-29T02:28:45;100296.89;;;-1.33;77.32
74181;BME280;62544;50.826;14.354;2023-01-29T02:33:08;100293.14;;;-1.33;77.10
74181;BME280;62544;50.826;14.354;2023-01-29T02:37:24;100288.59;;;-1.35;77.52
74181;BME280;62544;50.826;14.354;2023-01-29T02:50:40;100285.42;;;-1.36;77.63
74181;BME280;62544;50.826;14.354;2023-01-29T02:55:17;100284.76;;;-1.37;77.89
74181;BME280;62544;50.826;14.354;2023-01-29T02:59:29;100282.44;;;-1.38;78.24
74181;BME280;62544;50.826;14.354;2023-01-29T03:03:48;100279.58;;;-1.40;78.06
74181;BME280;62544;50.826;14.354;2023-01-29T03:08:14;100276.48;;;-1.44;78.77
74181;BME280;62544;50.826;14.354;2023-01-29T03:12:35;100275.25;;;-1.46;78.37
74181;BME280;62544;50.826;14.354;2023-01-29T03:16:59;100274.89;;;-1.47;78.11
74181;BME280;62544;50.826;14.354;2023-01-29T03:21:24;100275.47;;;-1.48;77.95
74181;BME280;62544;50.826;14.354;2023-01-29T03:25:47;100273.00;;;-1.49;78.00
74181;BME280;62544;50.826;14.354;2023-01-29T03:30:11;100272.06;;;-1.53;78.32
74181;BME280;62544;50.826;14.354;2023-01-29T03:34:45;100272.52;;;-1.55;78.13
74181;BME280;62544;50.826;14.354;2023-01-29T03:38:59;100272.03;;;-1.59;78.47
74181;BME280;62544;50.826;14.354;2023-01-29T03:43:26;100272.00;;;-1.62;78.30
74181;BME280;62544;50.826;14.354;2023-01-29T03:47:48;100273.18;;;-1.63;78.23
74181;BME280;62544;50.826;14.354;2023-01-29T03:52:24;100275.67;;;-1.63;78.01
74181;BME280;62544;50.826;14.354;2023-01-29T04:01:02;100280.78;;;-1.62;77.48
74181;BME280;62544;50.826;14.354;2023-01-29T04:05:23;100284.08;;;-1.61;76.05
74181;BME280;62544;50.826;14.354;2023-01-29T04:09:59;100287.58;;;-1.61;76.33
74181;BME280;62544;50.826;14.354;2023-01-29T04:14:10;100288.55;;;-1.60;75.07
74181;BME280;62544;50.826;14.354;2023-01-29T04:18:34;100286.55;;;-1.58;75.31
74181;BME280;62544;50.826;14.354;2023-01-29T04:22:58;100284.84;;;-1.55;74.42
74181;BME280;62544;50.826;14.354;2023-01-29T04:27:28;100283.98;;;-1.52;74.45
74181;BME280;62544;50.826;14.354;2023-01-29T04:31:59;100280.91;;;-1.47;74.01
74181;BME280;62544;50.826;14.354;2023-01-29T04:45:15;100264.86;;;-1.49;73.24
74181;BME280;62544;50.826;14.354;2023-01-29T04:49:33;100261.01;;;-1.52;73.27
74181;BME280;62544;50.826;14.354;2023-01-29T04:53:51;100257.57;;;-1.60;73.75
74181;BME280;62544;50.826;14.354;2023-01-29T04:58:15;100254.21;;;-1.75;73.58
74181;BME280;62544;50.826;14.354;2023-01-29T05:02:36;100251.74;;;-1.86;74.15
74181;BME280;62544;50.826;14.354;2023-01-29T05:07:05;100249.84;;;-1.97;74.59
74181;BME280;62544;50.826;14.354;2023-01-29T05:11:23;100247.35;;;-2.02;74.90
74181;BME280;62544;50.826;14.354;2023-01-29T05:15:47;100244.14;;;-2.06;74.89
74181;BME280;62544;50.826;14.354;2023-01-29T05:20:10;100237.02;;;-2.07;74.80
74181;BME280;62544;50.826;14.354;2023-01-29T05:24:34;100229.32;;;-2.08;74.62
74181;BME280;62544;50.826;14.354;2023-01-29T05:28:58;100221.62;;;-2.09;75.66
74181;BME280;62544;50.826;14.354;2023-01-29T05:33:23;100213.53;;;-2.12;74.79
74181;BME280;62544;50.826;14.354;2023-01-29T05:37:47;100206.55;;;-2.20;74.93
74181;BME280;62544;50.826;14.354;2023-01-29T05:42:11;100201.75;;;-2.21;74.38
74181;BME280;62544;50.826;14.354;2023-01-29T05:46:35;100197.77;;;-2.23;74.53
74181;BME280;62544;50.826;14.354;2023-01-29T05:50:59;100195.12;;;-2.22;74.70
74181;BME280;62544;50.826;14.354;2023-01-29T05:55:23;100193.37;;;-2.21;75.19
74181;BME280;62544;50.826;14.354;2023-01-29T05:59:47;100191.48;;;-2.20;75.12
74181;BME280;62544;50.826;14.354;2023-01-29T06:04:11;100190.08;;;-2.18;73.99
74181;BME280;62544;50.826;14.354;2023-01-29T06:08:35;100188.20;;;-2.16;73.93
74181;BME280;62544;50.826;14.354;2023-01-29T06:12:59;100187.98;;;-2.16;73.36
74181;BME280;62544;50.826;14.354;2023-01-29T06:17:23;100190.10;;;-2.20;73.55
74181;BME280;62544;50.826;14.354;2023-01-29T06:21:47;100194.81;;;-2.23;74.03
74181;BME280;62544;50.826;14.354;2023-01-29T06:26:11;100200.16;;;-2.24;73.48
74181;BME280;62544;50.826;14.354;2023-01-29T06:30:35;100204.57;;;-2.25;74.60
74181;BME280;62544;50.826;14.354;2023-01-29T06:34:59;100208.73;;;-2.31;75.13
74181;BME280;62544;50.826;14.354;2023-01-29T06:39:23;100210.94;;;-2.36;76.11
74181;BME280;62544;50.826;14.354;2023-01-29T06:43:46;100212.30;;;-2.46;76.71
74181;BME280;62544;50.826;14.354;2023-01-29T06:48:10;100213.72;;;-2.58;77.48
74181;BME280;62544;50.826;14.354;2023-01-29T06:52:34;100217.00;;;-2.68;77.19
74181;BME280;62544;50.826;14.354;2023-01-29T06:56:58;100224.79;;;-2.76;77.46
74181;BME280;62544;50.826;14.354;2023-01-29T07:01:22;100233.34;;;-2.81;77.67
74181;BME280;62544;50.826;14.354;2023-01-29T07:05:50;100239.64;;;-2.80;77.45
74181;BME280;62544;50.826;14.354;2023-01-29T07:10:11;100249.90;;;-2.78;77.84
74181;BME280;62544;50.826;14.354;2023-01-29T07:14:35;100261.04;;;-2.71;77.41
74181;BME280;62544;50.826;14.354;2023-01-29T07:18:59;100267.82;;;-2.56;76.42
74181;BME280;62544;50.826;14.354;2023-01-29T07:23:23;100273.85;;;-2.38;75.45
74181;BME280;62544;50.826;14.354;2023-01-29T07:27:47;100278.94;;;-2.18;73.78
74181;BME280;62544;50.826;14.354;2023-01-29T07:32:10;100283.68;;;-1.99;73.18
74181;BME280;62544;50.826;14.354;2023-01-29T07:36:34;100286.38;;;-1.82;73.04
74181;BME280;62544;50.826;14.354;2023-01-29T07:40:58;100287.84;;;-1.63;72.64
74181;BME280;62544;50.826;14.354;2023-01-29T07:45:22;100288.01;;;-1.45;71.84
74181;BME280;62544;50.826;14.354;2023-01-29T07:49:46;100290.00;;;-1.28;70.03
74181;BME280;62544;50.826;14.354;2023-01-29T07:54:10;100290.44;;;-1.15;69.27
74181;BME280;62544;50.826;14.354;2023-01-29T07:58:34;100288.51;;;-1.09;69.18
74181;BME280;62544;50.826;14.354;2023-01-29T08:03:06;100284.77;;;-1.04;69.01
74181;BME280;62544;50.826;14.354;2023-01-29T08:07:22;100280.17;;;-1.03;69.52
74181;BME280;62544;50.826;14.354;2023-01-29T08:11:46;100274.85;;;-1.06;69.05
74181;BME280;62544;50.826;14.354;2023-01-29T08:16:10;100270.45;;;-1.03;68.77
74181;BME280;62544;50.826;14.354;2023-01-29T08:20:34;100267.63;;;-0.99;68.70
74181;BME280;62544;50.826;14.354;2023-01-29T08:24:58;100266.09;;;-0.89;68.71
74181;BME280;62544;50.826;14.354;2023-01-29T08:29:22;100262.80;;;-0.76;67.29
74181;BME280;62544;50.826;14.354;2023-01-29T08:33:46;100258.93;;;-0.66;66.38
74181;BME280;62544;50.826;14.354;2023-01-29T08:38:10;100253.91;;;-0.60;66.54
74181;BME280;62544;50.826;14.354;2023-01-29T08:42:34;100248.74;;;-0.61;66.99
74181;BME280;62544;50.826;14.354;2023-01-29T08:46:58;100243.00;;;-0.64;67.65
74181;BME280;62544;50.826;14.354;2023-01-29T08:51:23;100239.10;;;-0.64;68.15
74181;BME280;62544;50.826;14.354;2023-01-29T08:55:46;100231.20;;;-0.69;68.42
74181;BME280;62544;50.826;14.354;2023-01-29T09:00:11;100227.66;;;-0.71;68.10
74181;BME280;62544;50.826;14.354;2023-01-29T09:04:34;100226.75;;;-0.58;66.53
74181;BME280;62544;50.826;14.354;2023-01-29T09:08:58;100228.30;;;-0.37;63.66
74181;BME280;62544;50.826;14.354;2023-01-29T09:13:22;100231.92;;;-0.16;63.11
74181;BME280;62544;50.826;14.354;2023-01-29T09:17:46;100234.63;;;-0.09;63.51
74181;BME280;62544;50.826;14.354;2023-01-29T09:22:10;100233.75;;;0.03;62.21
74181;BME280;62544;50.826;14.354;2023-01-29T09:26:34;100230.32;;;0.13;63.88
74181;BME280;62544;50.826;14.354;2023-01-29T09:31:01;100223.07;;;0.25;63.45
74181;BME280;62544;50.826;14.354;2023-01-29T09:35:22;100215.33;;;0.31;64.07
74181;BME280;62544;50.826;14.354;2023-01-29T09:39:46;100209.91;;;0.42;62.26
74181;BME280;62544;50.826;14.354;2023-01-29T09:44:16;100208.22;;;0.49;63.53
74181;BME280;62544;50.826;14.354;2023-01-29T09:48:34;100209.68;;;0.59;61.96
74181;BME280;62544;50.826;14.354;2023-01-29T09:53:04;100208.86;;;0.59;62.56
74181;BME280;62544;50.826;14.354;2023-01-29T09:57:24;100206.47;;;0.66;63.27
74181;BME280;62544;50.826;14.354;2023-01-29T10:01:52;100203.11;;;0.71;61.77
74181;BME280;62544;50.826;14.354;2023-01-29T10:10:50;100197.14;;;0.63;63.46
74181;BME280;62544;50.826;14.354;2023-01-29T10:15:04;100192.64;;;0.66;63.11
74181;BME280;62544;50.826;14.354;2023-01-29T10:23:53;100184.21;;;0.73;64.14
74181;BME280;62544;50.826;14.354;2023-01-29T10:32:34;100174.91;;;0.63;65.54
74181;BME280;62544;50.826;14.354;2023-01-29T10:36:58;100170.00;;;0.58;65.89
74181;BME280;62544;50.826;14.354;2023-01-29T10:50:23;100161.13;;;0.38;64.25
74181;BME280;62544;50.826;14.354;2023-01-29T10:59:00;100157.12;;;0.41;66.27
74181;BME280;62544;50.826;14.354;2023-01-29T11:03:23;100153.34;;;0.45;64.10
74181;BME280;62544;50.826;14.354;2023-01-29T11:07:46;100148.14;;;0.44;64.71
74181;BME280;62544;50.826;14.354;2023-01-29T11:12:12;100142.10;;;0.42;65.13
74181;BME280;62544;50.826;14.354;2023-01-29T11:16:41;100137.34;;;0.30;67.75
74181;BME280;62544;50.826;14.354;2023-01-29T11:20:59;100132.22;;;0.26;66.71
74181;BME280;62544;50.826;14.354;2023-01-29T11:25:22;100126.56;;;0.30;66.25
74181;BME280;62544;50.826;14.354;2023-01-29T11:29:51;100119.64;;;0.35;64.70
74181;BME280;62544;50.826;14.354;2023-01-29T11:34:28;100112.23;;;0.42;65.38
74181;BME280;62544;50.826;14.354;2023-01-29T11:38:34;100103.96;;;0.53;64.49
74181;BME280;62544;50.826;14.354;2023-01-29T11:43:10;100093.08;;;0.53;64.17
74181;BME280;62544;50.826;14.354;2023-01-29T11:47:26;100082.54;;;0.50;65.88
74181;BME280;62544;50.826;14.354;2023-01-29T11:51:49;100073.49;;;0.51;65.53
74181;BME280;62544;50.826;14.354;2023-01-29T11:56:20;100066.76;;;0.55;65.59
74181;BME280;62544;50.826;14.354;2023-01-29T12:00:34;100063.51;;;0.54;63.84
74181;BME280;62544;50.826;14.354;2023-01-29T12:05:02;100061.94;;;0.56;64.52
74181;BME280;62544;50.826;14.354;2023-01-29T12:09:23;100055.45;;;0.66;64.55
74181;BME280;62544;50.826;14.354;2023-01-29T12:13:46;100048.77;;;0.78;63.18
74181;BME280;62544;50.826;14.354;2023-01-29T12:27:18;100031.82;;;0.98;63.54
74181;BME280;62544;50.826;14.354;2023-01-29T12:35:47;100020.42;;;1.06;62.95
74181;BME280;62544;50.826;14.354;2023-01-29T12:40:13;100015.64;;;1.07;63.67
74181;BME280;62544;50.826;14.354;2023-01-29T12:44:38;100010.63;;;1.09;63.42
74181;BME280;62544;50.826;14.354;2023-01-29T12:49:00;100005.89;;;1.10;63.53
74181;BME280;62544;50.826;14.354;2023-01-29T12:53:26;100000.12;;;1.09;63.93
74181;BME280;62544;50.826;14.354;2023-01-29T12:57:55;99994.39;;;1.09;63.73
74181;BME280;62544;50.826;14.354;2023-01-29T13:02:21;99988.42;;;1.17;63.16
74181;BME280;62544;50.826;14.354;2023-01-29T13:06:35;99982.25;;;1.23;64.09
74181;BME280;62544;50.826;14.354;2023-01-29T13:10:58;99976.34;;;1.22;64.18
74181;BME280;62544;50.826;14.354;2023-01-29T13:15:27;99970.98;;;1.27;64.10
74181;BME280;62544;50.826;14.354;2023-01-29T13:19:48;99968.41;;;1.36;62.46
74181;BME280;62544;50.826;14.354;2023-01-29T13:24:11;99965.68;;;1.44;63.64
74181;BME280;62544;50.826;14.354;2023-01-29T13:28:34;99962.45;;;1.49;62.45
74181;BME280;62544;50.826;14.354;2023-01-29T13:32:59;99959.36;;;1.57;63.46
74181;BME280;62544;50.826;14.354;2023-01-29T13:41:46;99949.49;;;1.73;62.58
74181;BME280;62544;50.826;14.354;2023-01-29T13:46:11;99943.67;;;1.79;62.49
74181;BME280;62544;50.826;14.354;2023-01-29T13:50:37;99939.34;;;1.88;62.64
74181;BME280;62544;50.826;14.354;2023-01-29T13:54:59;99936.42;;;1.85;64.59
74181;BME280;62544;50.826;14.354;2023-01-29T14:03:48;99929.78;;;1.67;65.34
74181;BME280;62544;50.826;14.354;2023-01-29T14:12:38;99924.08;;;1.37;66.16
74181;BME280;62544;50.826;14.354;2023-01-29T14:17:04;99923.14;;;1.32;66.66
74181;BME280;62544;50.826;14.354;2023-01-29T14:21:22;99922.52;;;1.30;66.50
74181;BME280;62544;50.826;14.354;2023-01-29T14:25:46;99921.95;;;1.30;65.56
74181;BME280;62544;50.826;14.354;2023-01-29T14:30:12;99921.37;;;1.20;66.45
74181;BME280;62544;50.826;14.354;2023-01-29T14:38:58;99917.83;;;1.03;68.08
74181;BME280;62544;50.826;14.354;2023-01-29T14:43:22;99917.67;;;1.03;67.53
74181;BME280;62544;50.826;14.354;2023-01-29T14:47:50;99915.95;;;1.03;67.02
74181;BME280;62544;50.826;14.354;2023-01-29T14:52:10;99912.56;;;0.99;67.71
74181;BME280;62544;50.826;14.354;2023-01-29T14:56:35;99909.72;;;0.93;68.46
74181;BME280;62544;50.826;14.354;2023-01-29T15:00:58;99907.69;;;0.89;68.62
74181;BME280;62544;50.826;14.354;2023-01-29T15:05:26;99903.03;;;0.81;69.51
74181;BME280;62544;50.826;14.354;2023-01-29T15:09:52;99899.03;;;0.78;69.70
74181;BME280;62544;50.826;14.354;2023-01-29T15:14:28;99896.47;;;0.80;68.60
74181;BME280;62544;50.826;14.354;2023-01-29T15:18:38;99894.56;;;0.73;69.37
74181;BME280;62544;50.826;14.354;2023-01-29T15:22:58;99894.26;;;0.70;68.76
74181;BME280;62544;50.826;14.354;2023-01-29T15:27:22;99893.54;;;0.68;69.43
74181;BME280;62544;50.826;14.354;2023-01-29T15:31:46;99893.37;;;0.67;68.65
74181;BME280;62544;50.826;14.354;2023-01-29T15:36:15;99892.47;;;0.71;69.43
74181;BME280;62544;50.826;14.354;2023-01-29T15:40:34;99891.58;;;0.72;68.66
74181;BME280;62544;50.826;14.354;2023-01-29T15:44:58;99890.75;;;0.71;69.06
74181;BME280;62544;50.826;14.354;2023-01-29T15:49:34;99889.64;;;0.74;68.35
74181;BME280;62544;50.826;14.354;2023-01-29T15:53:50;99889.51;;;0.83;68.30
74181;BME280;62544;50.826;14.354;2023-01-29T15:58:17;99888.64;;;0.90;68.33
74181;BME280;62544;50.826;14.354;2023-01-29T16:02:38;99888.39;;;0.93;68.01
74181;BME280;62544;50.826;14.354;2023-01-29T16:06:58;99887.22;;;0.92;68.88
74181;BME280;62544;50.826;14.354;2023-01-29T16:11:23;99885.17;;;0.96;68.29
74181;BME280;62544;50.826;14.354;2023-01-29T16:15:53;99883.93;;;0.99;68.26
74181;BME280;62544;50.826;14.354;2023-01-29T16:20:28;99881.76;;;1.00;68.35
74181;BME280;62544;50.826;14.354;2023-01-29T16:24:34;99877.81;;;0.96;68.82
74181;BME280;62544;50.826;14.354;2023-01-29T16:29:04;99874.95;;;0.92;69.62
74181;BME280;62544;50.826;14.354;2023-01-29T16:33:22;99871.55;;;0.91;70.17
74181;BME280;62544;50.826;14.354;2023-01-29T16:37:46;99868.41;;;0.86;70.15
74181;BME280;62544;50.826;14.354;2023-01-29T16:42:20;99866.83;;;0.84;70.36
74181;BME280;62544;50.826;14.354;2023-01-29T16:46:35;99865.23;;;0.83;70.82
74181;BME280;62544;50.826;14.354;2023-01-29T16:51:05;99863.16;;;0.85;69.74
74181;BME280;62544;50.826;14.354;2023-01-29T16:55:22;99859.64;;;0.85;70.41
74181;BME280;62544;50.826;14.354;2023-01-29T16:59:46;99857.00;;;0.81;71.82
74181;BME280;62544;50.826;14.354;2023-01-29T17:04:12;99853.78;;;0.80;71.33
74181;BME280;62544;50.826;14.354;2023-01-29T17:08:34;99852.40;;;0.81;71.49
74181;BME280;62544;50.826;14.354;2023-01-29T17:13:00;99849.91;;;0.82;71.21
74181;BME280;62544;50.826;14.354;2023-01-29T17:17:27;99846.48;;;0.82;70.75
74181;BME280;62544;50.826;14.354;2023-01-29T17:21:46;99841.94;;;0.81;71.55
74181;BME280;62544;50.826;14.354;2023-01-29T17:26:11;99836.80;;;0.72;72.47
74181;BME280;62544;50.826;14.354;2023-01-29T17:30:34;99831.25;;;0.66;72.11
74181;BME280;62544;50.826;14.354;2023-01-29T17:34:58;99826.09;;;0.59;72.33
74181;BME280;62544;50.826;14.354;2023-01-29T17:39:22;99822.61;;;0.54;72.33
74181;BME280;62544;50.826;14.354;2023-01-29T17:43:46;99819.34;;;0.54;73.12
74181;BME280;62544;50.826;14.354;2023-01-29T17:48:14;99816.38;;;0.53;72.52
74181;BME280;62544;50.826;14.354;2023-01-29T17:52:34;99813.95;;;0.50;73.03
74181;BME280;62544;50.826;14.354;2023-01-29T17:57:01;99812.67;;;0.49;73.01
74181;BME280;62544;50.826;14.354;2023-01-29T18:01:22;99812.16;;;0.50;72.40
74181;BME280;62544;50.826;14.354;2023-01-29T18:05:46;99811.66;;;0.50;72.44
74181;BME280;62544;50.826;14.354;2023-01-29T18:10:11;99810.99;;;0.53;72.17
74181;BME280;62544;50.826;14.354;2023-01-29T18:14:34;99808.38;;;0.54;72.46
74181;BME280;62544;50.826;14.354;2023-01-29T18:18:58;99806.83;;;0.53;72.61
74181;BME280;62544;50.826;14.354;2023-01-29T18:23:22;99804.67;;;0.55;72.17
74181;BME280;62544;50.826;14.354;2023-01-29T18:27:46;99801.47;;;0.58;71.91
74181;BME280;62544;50.826;14.354;2023-01-29T18:32:10;99799.33;;;0.60;71.43
74181;BME280;62544;50.826;14.354;2023-01-29T18:36:34;99796.84;;;0.62;71.31
74181;BME280;62544;50.826;14.354;2023-01-29T18:41:16;99792.30;;;0.61;71.02
74181;BME280;62544;50.826;14.354;2023-01-29T18:45:22;99787.47;;;0.60;71.49
74181;BME280;62544;50.826;14.354;2023-01-29T18:49:46;99783.15;;;0.57;71.04
74181;BME280;62544;50.826;14.354;2023-01-29T18:54:10;99778.47;;;0.54;70.96
74181;BME280;62544;50.826;14.354;2023-01-29T18:58:34;99772.83;;;0.50;70.93
74181;BME280;62544;50.826;14.354;2023-01-29T19:02:58;99767.88;;;0.49;70.19
74181;BME280;62544;50.826;14.354;2023-01-29T19:07:22;99761.38;;;0.44;71.37
74181;BME280;62544;50.826;14.354;2023-01-29T19:11:46;99754.46;;;0.47;70.33
74181;BME280;62544;50.826;14.354;2023-01-29T19:16:10;99747.86;;;0.49;70.78
74181;BME280;62544;50.826;14.354;2023-01-29T19:20:34;99741.33;;;0.56;69.76
74181;BME280;62544;50.826;14.354;2023-01-29T19:24:58;99734.09;;;0.61;69.46
74181;BME280;62544;50.826;14.354;2023-01-29T19:29:22;99727.37;;;0.64;69.06
74181;BME280;62544;50.826;14.354;2023-01-29T19:33:46;99720.42;;;0.63;69.71
74181;BME280;62544;50.826;14.354;2023-01-29T19:38:10;99714.11;;;0.56;70.14
74181;BME280;62544;50.826;14.354;2023-01-29T19:42:35;99706.71;;;0.44;71.63
74181;BME280;62544;50.826;14.354;2023-01-29T19:46:58;99699.63;;;0.38;71.66
74181;BME280;62544;50.826;14.354;2023-01-29T19:51:22;99694.06;;;0.32;71.62
74181;BME280;62544;50.826;14.354;2023-01-29T19:55:46;99690.29;;;0.30;71.63
74181;BME280;62544;50.826;14.354;2023-01-29T20:00:10;99687.03;;;0.31;70.63
74181;BME280;62544;50.826;14.354;2023-01-29T20:04:34;99683.36;;;0.31;70.82
74181;BME280;62544;50.826;14.354;2023-01-29T20:08:58;99679.58;;;0.30;71.15
74181;BME280;62544;50.826;14.354;2023-01-29T20:13:22;99674.63;;;0.32;70.69
74181;BME280;62544;50.826;14.354;2023-01-29T20:17:46;99669.37;;;0.34;70.61
74181;BME280;62544;50.826;14.354;2023-01-29T20:22:10;99665.93;;;0.40;69.87
74181;BME280;62544;50.826;14.354;2023-01-29T20:26:34;99662.73;;;0.44;70.47
74181;BME280;62544;50.826;14.354;2023-01-29T20:30:58;99660.90;;;0.49;70.34
74181;BME280;62544;50.826;14.354;2023-01-29T20:35:22;99659.74;;;0.55;70.40
74181;BME280;62544;50.826;14.354;2023-01-29T20:39:46;99656.38;;;0.59;69.81
74181;BME280;62544;50.826;14.354;2023-01-29T20:44:10;99653.74;;;0.60;69.57
74181;BME280;62544;50.826;14.354;2023-01-29T20:48:34;99652.66;;;0.53;70.58
74181;BME280;62544;50.826;14.354;2023-01-29T20:52:58;99650.34;;;0.48;70.47
74181;BME280;62544;50.826;14.354;2023-01-29T20:57:22;99646.63;;;0.43;70.28
74181;BME280;62544;50.826;14.354;2023-01-29T21:01:46;99641.77;;;0.45;69.82
74181;BME280;62544;50.826;14.354;2023-01-29T21:06:10;99637.45;;;0.45;69.19
74181;BME280;62544;50.826;14.354;2023-01-29T21:10:34;99632.44;;;0.41;68.93
74181;BME280;62544;50.826;14.354;2023-01-29T21:14:58;99629.15;;;0.26;69.83
74181;BME280;62544;50.826;14.354;2023-01-29T21:19:23;99625.51;;;0.14;69.66
74181;BME280;62544;50.826;14.354;2023-01-29T21:23:46;99621.37;;;0.02;70.23
74181;BME280;62544;50.826;14.354;2023-01-29T21:28:10;99616.29;;;-0.09;70.67
74181;BME280;62544;50.826;14.354;2023-01-29T21:32:34;99611.89;;;-0.22;71.13
74181;BME280;62544;50.826;14.354;2023-01-29T21:36:58;99607.12;;;-0.35;71.98
74181;BME280;62544;50.826;14.354;2023-01-29T21:41:22;99602.37;;;-0.49;72.29
74181;BME280;62544;50.826;14.354;2023-01-29T21:45:46;99597.39;;;-0.62;73.28
74181;BME280;62544;50.826;14.354;2023-01-29T21:50:10;99592.52;;;-0.76;73.89
74181;BME280;62544;50.826;14.354;2023-01-29T21:54:34;99587.71;;;-0.90;74.23
74181;BME280;62544;50.826;14.354;2023-01-29T21:58:58;99582.50;;;-1.04;74.83
74181;BME280;62544;50.826;14.354;2023-01-29T22:03:22;99575.30;;;-1.20;75.92
74181;BME280;62544;50.826;14.354;2023-01-29T22:07:46;99567.46;;;-1.34;76.00
74181;BME280;62544;50.826;14.354;2023-01-29T22:12:10;99560.05;;;-1.43;75.25
74181;BME280;62544;50.826;14.354;2023-01-29T22:16:34;99553.59;;;-1.52;75.76
74181;BME280;62544;50.826;14.354;2023-01-29T22:20:58;99547.61;;;-1.61;75.82
74181;BME280;62544;50.826;14.354;2023-01-29T22:25:22;99541.50;;;-1.72;76.66
74181;BME280;62544;50.826;14.354;2023-01-29T22:29:45;99534.30;;;-1.81;76.20
74181;BME280;62544;50.826;14.354;2023-01-29T22:34:10;99524.64;;;-1.88;76.42
74181;BME280;62544;50.826;14.354;2023-01-29T22:38:34;99514.15;;;-1.93;76.09
74181;BME280;62544;50.826;14.354;2023-01-29T22:42:57;99504.30;;;-1.96;75.86
74181;BME280;62544;50.826;14.354;2023-01-29T22:47:21;99492.81;;;-2.02;76.29
74181;BME280;62544;50.826;14.354;2023-01-29T22:51:46;99483.15;;;-2.03;75.52
74181;BME280;62544;50.826;14.354;2023-01-29T22:56:10;99474.90;;;-2.00;74.49
74181;BME280;62544;50.826;14.354;2023-01-29T23:00:34;99467.47;;;-1.98;74.16
74181;BME280;62544;50.826;14.354;2023-01-29T23:04:58;99460.41;;;-1.94;73.80
74181;BME280;62544;50.826;14.354;2023-01-29T23:09:22;99452.25;;;-1.86;73.25
74181;BME280;62544;50.826;14.354;2023-01-29T23:13:49;99444.31;;;-1.79;73.95
74181;BME280;62544;50.826;14.354;2023-01-29T23:18:10;99438.26;;;-1.74;74.00
74181;BME280;62544;50.826;14.354;2023-01-29T23:22:33;99430.27;;;-1.72;74.17
74181;BME280;62544;50.826;14.354;2023-01-29T23:26:57;99426.05;;;-1.68;73.78
74181;BME280;62544;50.826;14.354;2023-01-29T23:31:22;99422.44;;;-1.66;73.70
74181;BME280;62544;50.826;14.354;2023-01-29T23:35:45;99415.26;;;-1.67;73.59
74181;BME280;62544;50.826;14.354;2023-01-29T23:40:10;99408.11;;;-1.70;74.22
74181;BME280;62544;50.826;14.354;2023-01-29T23:44:33;99401.51;;;-1.72;74.42
74181;BME280;62544;50.826;14.354;2023-01-29T23:48:57;99396.23;;;-1.75;74.06
74181;BME280;62544;50.826;14.354;2023-01-29T23:53:21;99391.41;;;-1.85;75.07
74181;BME280;62544;50.826;14.354;2023-01-29T23:57:45;99384.94;;;-1.91;74.98
